Orenge 7 — JL6148 — position and weather

sailwx.info

Track history (hours):
 
Tides and Currents Weather Stations Pressure Air Temp Water Temp Dewpoint Dewpoint Depression Visibility Wind Speed Wind Dir Waves Ship Positions

Orenge 7

Last reported at 2015-Mar-27 15:03 UTC. Time now 2015-Mar-28 11:02 UTC.
Position N 34°33' E 134°46'.

Length 163 m; draft 4.9 m.

Type: Passenger vessel. MMSI: 431500186.

Date/timePositionNaut miles runAvg speedWind from/ knotsBaromVisibWave heightAir tempDewpointWater temp
2015-Mar-27 15:03N 34°33' E 134°46'1019.2
2015-Mar-27 14:33N 34°37' E 134°56'1817.9
2015-Mar-27 13:33N 34°37' E 135°18'6 5.3
2015-Mar-27 12:22N 34°37' E 135°26'0 0.0
2015-Mar-27 10:28N 34°37' E 135°26'0 0.0
2015-Mar-27 09:28N 34°37' E 135°26'0 0.0
2015-Mar-27 08:28N 34°37' E 135°26'0 0.0
2015-Mar-27 07:28N 34°37' E 135°26'0 0.0
2015-Mar-27 06:28N 34°37' E 135°26'0 0.0
2015-Mar-27 05:22N 34°37' E 135°26'0 0.0
2015-Mar-27 04:28N 34°37' E 135°26'0 0.0
2015-Mar-27 03:04N 34°37' E 135°26'0 0.0
2015-Mar-27 02:28N 34°37' E 135°26'0 0.0
2015-Mar-27 01:28N 34°37' E 135°26'0 0.0
2015-Mar-27 00:28N 34°37' E 135°26'0 0.0
2015-Mar-26 23:22N 34°37' E 135°26'0 0.0
2015-Mar-26 22:28N 34°37' E 135°26'0 0.0
2015-Mar-26 21:16N 34°37' E 135°26'6 8.3
2015-Mar-26 20:33N 34°36' E 135°19'1818.1
2015-Mar-26 19:34N 34°36' E 134°57'1 0.0
2015-Mar-25 14:33N 34°36' E 134°55'1918.9
2015-Mar-25 13:34N 34°37' E 135°18'6 5.9
2015-Mar-25 12:29N 34°37' E 135°26'0 0.0
2015-Mar-25 11:23N 34°37' E 135°26'0 0.0
2015-Mar-25 10:29N 34°37' E 135°26'0 0.0
2015-Mar-25 09:28N 34°37' E 135°26'0 0.0
2015-Mar-25 08:29N 34°37' E 135°26'0 0.0
2015-Mar-25 07:17N 34°37' E 135°26'0 0.0
2015-Mar-25 06:11N 34°37' E 135°26'0 0.0
2015-Mar-25 05:29N 34°37' E 135°26'0 0.0
2015-Mar-25 04:28N 34°37' E 135°26'0 0.0
2015-Mar-25 03:28N 34°37' E 135°26'0 0.0
2015-Mar-25 02:28N 34°37' E 135°26'0 0.0
2015-Mar-25 01:23N 34°37' E 135°26'0 0.0
2015-Mar-24 23:29N 34°37' E 135°26'0 0.0
2015-Mar-24 21:29N 34°37' E 135°26'5 5.9
2015-Mar-24 20:33N 34°36' E 135°19'1817.9
2015-Mar-24 19:33N 34°37' E 134°58'3 0.1
2015-Mar-23 14:33N 34°36' E 134°55'2019.4
2015-Mar-23 13:33N 34°37' E 135°18'6 5.3
2015-Mar-23 12:23N 34°37' E 135°26'0 0.0
2015-Mar-23 11:11N 34°37' E 135°26'0 0.0
2015-Mar-23 10:23N 34°37' E 135°26'0 0.0
2015-Mar-23 09:29N 34°37' E 135°26'0 0.0
2015-Mar-23 08:29N 34°37' E 135°26'0 0.0
2015-Mar-23 07:23N 34°37' E 135°26'0 0.0
2015-Mar-23 06:29N 34°37' E 135°26'0 0.0
2015-Mar-23 05:29N 34°37' E 135°26'0 0.0
2015-Mar-23 04:17N 34°37' E 135°26'0 0.0
2015-Mar-23 03:29N 34°37' E 135°26'0 0.0
2015-Mar-23 02:29N 34°37' E 135°26'0 0.0
2015-Mar-23 01:29N 34°37' E 135°26'0 0.0
2015-Mar-23 00:29N 34°37' E 135°26'0 0.0
2015-Mar-22 23:29N 34°37' E 135°26'0 0.0
2015-Mar-22 21:29N 34°37' E 135°26'5 5.1
2015-Mar-22 20:33N 34°36' E 135°20'1817.6
2015-Mar-22 19:33N 34°37' E 134°59'3 0.1
2015-Mar-21 14:33N 34°37' E 134°56'1918.8
2015-Mar-21 13:33N 34°37' E 135°18'6 6.1
2015-Mar-21 12:33N 34°37' E 135°26'0 0.0
2015-Mar-21 11:33N 34°37' E 135°26'0 0.0
2015-Mar-21 10:33N 34°37' E 135°26'0 0.0
2015-Mar-21 09:33N 34°37' E 135°26'0 0.0
2015-Mar-21 08:27N 34°37' E 135°26'0 0.0
2015-Mar-21 07:33N 34°37' E 135°26'0 0.0
2015-Mar-21 06:27N 34°37' E 135°26'0 0.0
2015-Mar-21 05:33N 34°37' E 135°26'0 0.0
2015-Mar-21 04:27N 34°37' E 135°26'0 0.0
2015-Mar-21 03:21N 34°37' E 135°26'0 0.0
2015-Mar-21 02:33N 34°37' E 135°26'0 0.0
2015-Mar-21 01:33N 34°37' E 135°26'0 0.0
2015-Mar-21 00:27N 34°37' E 135°26'0 0.0
2015-Mar-20 23:27N 34°37' E 135°26'0 0.0
2015-Mar-20 22:33N 34°37' E 135°26'0 0.0
2015-Mar-20 21:15N 34°37' E 135°26'6 8.5
2015-Mar-20 20:33N 34°36' E 135°19'1817.7
2015-Mar-20 19:33N 34°36' E 134°57'1 0.0
2015-Mar-19 14:33N 34°37' E 134°56'1818.1
2015-Mar-19 13:33N 34°36' E 135°18'6 6.3
2015-Mar-19 12:33N 34°37' E 135°26'0 0.0
2015-Mar-19 11:09N 34°37' E 135°26'0 0.0
2015-Mar-19 10:21N 34°37' E 135°26'0 0.0
2015-Mar-19 09:15N 34°37' E 135°26'0 0.0
2015-Mar-19 08:33N 34°37' E 135°26'0 0.0
2015-Mar-19 05:21N 34°37' E 135°26'0 0.0
2015-Mar-19 02:33N 34°37' E 135°26'0 0.0
2015-Mar-19 01:03N 34°37' E 135°26'0 0.0
2015-Mar-19 00:33N 34°37' E 135°26'0 0.0
2015-Mar-18 23:21N 34°37' E 135°26'0 0.0
2015-Mar-18 22:33N 34°37' E 135°26'0 0.0
2015-Mar-18 21:33N 34°37' E 135°26'6 6.5
2015-Mar-18 20:33N 34°35' E 135°18'1716.7
2015-Mar-18 19:33N 34°37' E 134°58'1919.1
2015-Mar-18 18:32N 34°28' E 134°37'14 0.6
2015-Mar-17 19:07N 34°35' E 134°52'1119.1
2015-Mar-17 18:33N 34°36' E 135°05'1717.2
2015-Mar-17 17:33N 34°37' E 135°26'0 0.2
2015-Mar-17 16:29N 34°37' E 135°26'1 1.4
2015-Mar-17 15:33N 34°37' E 135°24'  
Track history (hours):
 
Tides and Currents Weather Stations Pressure Air Temp Water Temp Dewpoint Dewpoint Depression Visibility Wind Speed Wind Dir Waves Ship Positions

Orenge 7

Last reported at 2015-Mar-27 15:03 UTC. Time now 2015-Mar-28 11:02 UTC.
Position N 34°33' E 134°46'.

Length 163 m; draft 4.9 m.

Type: Passenger vessel. MMSI: 431500186.

Date/timePositionNaut miles runAvg speedWind from/ knotsBaromVisibWave heightAir tempDewpointWater temp
2015-Mar-27 15:03N 34°33' E 134°46'1019.2
2015-Mar-27 14:33N 34°37' E 134°56'1817.9
2015-Mar-27 13:33N 34°37' E 135°18'6 5.3
2015-Mar-27 12:22N 34°37' E 135°26'0 0.0
2015-Mar-27 10:28N 34°37' E 135°26'0 0.0
2015-Mar-27 09:28N 34°37' E 135°26'0 0.0
2015-Mar-27 08:28N 34°37' E 135°26'0 0.0
2015-Mar-27 07:28N 34°37' E 135°26'0 0.0
2015-Mar-27 06:28N 34°37' E 135°26'0 0.0
2015-Mar-27 05:22N 34°37' E 135°26'0 0.0
2015-Mar-27 04:28N 34°37' E 135°26'0 0.0
2015-Mar-27 03:04N 34°37' E 135°26'0 0.0
2015-Mar-27 02:28N 34°37' E 135°26'0 0.0
2015-Mar-27 01:28N 34°37' E 135°26'0 0.0
2015-Mar-27 00:28N 34°37' E 135°26'0 0.0
2015-Mar-26 23:22N 34°37' E 135°26'0 0.0
2015-Mar-26 22:28N 34°37' E 135°26'0 0.0
2015-Mar-26 21:16N 34°37' E 135°26'6 8.3
2015-Mar-26 20:33N 34°36' E 135°19'1818.1
2015-Mar-26 19:34N 34°36' E 134°57'1 0.0
2015-Mar-25 14:33N 34°36' E 134°55'1918.9
2015-Mar-25 13:34N 34°37' E 135°18'6 5.9
2015-Mar-25 12:29N 34°37' E 135°26'0 0.0
2015-Mar-25 11:23N 34°37' E 135°26'0 0.0
2015-Mar-25 10:29N 34°37' E 135°26'0 0.0
2015-Mar-25 09:28N 34°37' E 135°26'0 0.0
2015-Mar-25 08:29N 34°37' E 135°26'0 0.0
2015-Mar-25 07:17N 34°37' E 135°26'0 0.0
2015-Mar-25 06:11N 34°37' E 135°26'0 0.0
2015-Mar-25 05:29N 34°37' E 135°26'0 0.0
2015-Mar-25 04:28N 34°37' E 135°26'0 0.0
2015-Mar-25 03:28N 34°37' E 135°26'0 0.0
2015-Mar-25 02:28N 34°37' E 135°26'0 0.0
2015-Mar-25 01:23N 34°37' E 135°26'0 0.0
2015-Mar-24 23:29N 34°37' E 135°26'0 0.0
2015-Mar-24 21:29N 34°37' E 135°26'5 5.9
2015-Mar-24 20:33N 34°36' E 135°19'1817.9
2015-Mar-24 19:33N 34°37' E 134°58'3 0.1
2015-Mar-23 14:33N 34°36' E 134°55'2019.4
2015-Mar-23 13:33N 34°37' E 135°18'6 5.3
2015-Mar-23 12:23N 34°37' E 135°26'0 0.0
2015-Mar-23 11:11N 34°37' E 135°26'0 0.0
2015-Mar-23 10:23N 34°37' E 135°26'0 0.0
2015-Mar-23 09:29N 34°37' E 135°26'0 0.0
2015-Mar-23 08:29N 34°37' E 135°26'0 0.0
2015-Mar-23 07:23N 34°37' E 135°26'0 0.0
2015-Mar-23 06:29N 34°37' E 135°26'0 0.0
2015-Mar-23 05:29N 34°37' E 135°26'0 0.0
2015-Mar-23 04:17N 34°37' E 135°26'0 0.0
2015-Mar-23 03:29N 34°37' E 135°26'0 0.0
2015-Mar-23 02:29N 34°37' E 135°26'0 0.0
2015-Mar-23 01:29N 34°37' E 135°26'0 0.0
2015-Mar-23 00:29N 34°37' E 135°26'0 0.0
2015-Mar-22 23:29N 34°37' E 135°26'0 0.0
2015-Mar-22 21:29N 34°37' E 135°26'5 5.1
2015-Mar-22 20:33N 34°36' E 135°20'1817.6
2015-Mar-22 19:33N 34°37' E 134°59'3 0.1
2015-Mar-21 14:33N 34°37' E 134°56'1918.8
2015-Mar-21 13:33N 34°37' E 135°18'6 6.1
2015-Mar-21 12:33N 34°37' E 135°26'0 0.0
2015-Mar-21 11:33N 34°37' E 135°26'0 0.0
2015-Mar-21 10:33N 34°37' E 135°26'0 0.0
2015-Mar-21 09:33N 34°37' E 135°26'0 0.0
2015-Mar-21 08:27N 34°37' E 135°26'0 0.0
2015-Mar-21 07:33N 34°37' E 135°26'0 0.0
2015-Mar-21 06:27N 34°37' E 135°26'0 0.0
2015-Mar-21 05:33N 34°37' E 135°26'0 0.0
2015-Mar-21 04:27N 34°37' E 135°26'0 0.0
2015-Mar-21 03:21N 34°37' E 135°26'0 0.0
2015-Mar-21 02:33N 34°37' E 135°26'0 0.0
2015-Mar-21 01:33N 34°37' E 135°26'0 0.0
2015-Mar-21 00:27N 34°37' E 135°26'0 0.0
2015-Mar-20 23:27N 34°37' E 135°26'0 0.0
2015-Mar-20 22:33N 34°37' E 135°26'0 0.0
2015-Mar-20 21:15N 34°37' E 135°26'6 8.5
2015-Mar-20 20:33N 34°36' E 135°19'1817.7
2015-Mar-20 19:33N 34°36' E 134°57'1 0.0
2015-Mar-19 14:33N 34°37' E 134°56'1818.1
2015-Mar-19 13:33N 34°36' E 135°18'6 6.3
2015-Mar-19 12:33N 34°37' E 135°26'0 0.0
2015-Mar-19 11:09N 34°37' E 135°26'0 0.0
2015-Mar-19 10:21N 34°37' E 135°26'0 0.0
2015-Mar-19 09:15N 34°37' E 135°26'0 0.0
2015-Mar-19 08:33N 34°37' E 135°26'0 0.0
2015-Mar-19 05:21N 34°37' E 135°26'0 0.0
2015-Mar-19 02:33N 34°37' E 135°26'0 0.0
2015-Mar-19 01:03N 34°37' E 135°26'0 0.0
2015-Mar-19 00:33N 34°37' E 135°26'0 0.0
2015-Mar-18 23:21N 34°37' E 135°26'0 0.0
2015-Mar-18 22:33N 34°37' E 135°26'0 0.0
2015-Mar-18 21:33N 34°37' E 135°26'6 6.5
2015-Mar-18 20:33N 34°35' E 135°18'1716.7
2015-Mar-18 19:33N 34°37' E 134°58'1919.1
2015-Mar-18 18:32N 34°28' E 134°37'14 0.6
2015-Mar-17 19:07N 34°35' E 134°52'1119.1
2015-Mar-17 18:33N 34°36' E 135°05'1717.2
2015-Mar-17 17:33N 34°37' E 135°26'0 0.2
2015-Mar-17 16:29N 34°37' E 135°26'1 1.4
2015-Mar-17 15:33N 34°37' E 135°24'  

Dump ship's entire track history